sensor_id;sensor_type;location;lat;lon;timestamp;pressure;altitude;pressure_sealevel;temperature;humidity
69173;BME280;56280;49.662;8.408;2023-01-26T00:00:27;101475.53;;;1.52;83.53
69173;BME280;56280;49.662;8.408;2023-01-26T00:02:54;101465.56;;;1.64;82.86
69173;BME280;56280;49.662;8.408;2023-01-26T00:05:20;101478.94;;;1.54;83.42
69173;BME280;56280;49.662;8.408;2023-01-26T00:07:45;101451.94;;;1.52;83.31
69173;BME280;56280;49.662;8.408;2023-01-26T00:10:11;101483.56;;;1.75;82.45
69173;BME280;56280;49.662;8.408;2023-01-26T00:12:37;101469.03;;;1.34;83.67
69173;BME280;56280;49.662;8.408;2023-01-26T00:15:02;101414.31;;;0.90;84.40
69173;BME280;56280;49.662;8.408;2023-01-26T00:17:27;101325.75;;;0.42;84.37
69173;BME280;56280;49.662;8.408;2023-01-26T00:19:55;101455.78;;;1.05;85.43
69173;BME280;56280;49.662;8.408;2023-01-26T00:22:21;101450.94;;;0.90;86.42
69173;BME280;56280;49.662;8.408;2023-01-26T00:24:47;101464.16;;;0.85;86.51
69173;BME280;56280;49.662;8.408;2023-01-26T00:27:12;101427.56;;;0.84;86.32
69173;BME280;56280;49.662;8.408;2023-01-26T00:29:37;101445.75;;;0.88;86.43
69173;BME280;56280;49.662;8.408;2023-01-26T00:32:03;101449.38;;;1.17;86.26
69173;BME280;56280;49.662;8.408;2023-01-26T00:34:28;101412.69;;;0.86;86.88
69173;BME280;56280;49.662;8.408;2023-01-26T00:36:53;101426.91;;;0.74;86.30
69173;BME280;56280;49.662;8.408;2023-01-26T00:39:18;101445.72;;;0.54;88.59
69173;BME280;56280;49.662;8.408;2023-01-26T00:41:44;101299.13;;;-0.87;90.68
69173;BME280;56280;49.662;8.408;2023-01-26T00:44:28;101415.66;;;-0.02;92.59
69173;BME280;56280;49.662;8.408;2023-01-26T00:46:53;101450.06;;;0.16;91.96
69173;BME280;56280;49.662;8.408;2023-01-26T00:49:18;101421.50;;;0.10;92.81
69173;BME280;56280;49.662;8.408;2023-01-26T00:51:43;101408.19;;;0.19;92.22
69173;BME280;56280;49.662;8.408;2023-01-26T00:54:09;101441.84;;;0.70;90.45
69173;BME280;56280;49.662;8.408;2023-01-26T00:56:34;101329.53;;;-0.06;90.38
69173;BME280;56280;49.662;8.408;2023-01-26T00:59:00;101413.00;;;1.08;88.09
69173;BME280;56280;49.662;8.408;2023-01-26T01:01:25;101405.72;;;1.19;86.24
69173;BME280;56280;49.662;8.408;2023-01-26T01:03:50;101435.06;;;0.98;86.65
69173;BME280;56280;49.662;8.408;2023-01-26T01:06:16;101466.72;;;0.51;89.34
69173;BME280;56280;49.662;8.408;2023-01-26T01:08:41;101453.31;;;0.27;90.95
69173;BME280;56280;49.662;8.408;2023-01-26T01:11:09;101459.34;;;0.31;92.22
69173;BME280;56280;49.662;8.408;2023-01-26T01:13:34;101429.59;;;-0.03;92.93
69173;BME280;56280;49.662;8.408;2023-01-26T01:16:04;101394.47;;;-0.30;93.88
69173;BME280;56280;49.662;8.408;2023-01-26T01:18:29;101409.06;;;-0.21;93.71
69173;BME280;56280;49.662;8.408;2023-01-26T01:20:54;101403.03;;;0.16;93.38
69173;BME280;56280;49.662;8.408;2023-01-26T01:23:19;101421.84;;;-0.07;93.33
69173;BME280;56280;49.662;8.408;2023-01-26T01:25:45;101348.09;;;-0.58;93.97
69173;BME280;56280;49.662;8.408;2023-01-26T01:28:10;101407.25;;;0.23;92.50
69173;BME280;56280;49.662;8.408;2023-01-26T01:30:36;101389.25;;;0.09;90.62
69173;BME280;56280;49.662;8.408;2023-01-26T01:33:02;101441.00;;;-0.07;93.00
69173;BME280;56280;49.662;8.408;2023-01-26T01:35:27;101438.41;;;-0.08;93.22
69173;BME280;56280;49.662;8.408;2023-01-26T01:37:53;101412.41;;;0.26;92.13
69173;BME280;56280;49.662;8.408;2023-01-26T01:40:18;101457.91;;;-0.25;94.18
69173;BME280;56280;49.662;8.408;2023-01-26T01:42:47;101439.47;;;-0.59;96.04
69173;BME280;56280;49.662;8.408;2023-01-26T01:47:52;101440.81;;;-0.40;96.24
69173;BME280;56280;49.662;8.408;2023-01-26T01:50:19;101448.44;;;-0.29;95.93
69173;BME280;56280;49.662;8.408;2023-01-26T01:52:45;101437.00;;;-0.23;95.93
69173;BME280;56280;49.662;8.408;2023-01-26T01:55:12;101452.53;;;-0.17;94.71
69173;BME280;56280;49.662;8.408;2023-01-26T01:57:47;101396.63;;;-0.49;94.79
69173;BME280;56280;49.662;8.408;2023-01-26T02:00:18;101445.81;;;-0.27;94.14
69173;BME280;56280;49.662;8.408;2023-01-26T02:02:48;101427.00;;;-0.45;93.85
69173;BME280;56280;49.662;8.408;2023-01-26T02:06:01;101425.59;;;-0.19;92.76
69173;BME280;56280;49.662;8.408;2023-01-26T02:08:35;101442.84;;;0.27;91.69
69173;BME280;56280;49.662;8.408;2023-01-26T02:11:08;101399.38;;;-0.14;91.78
69173;BME280;56280;49.662;8.408;2023-01-26T02:13:35;101421.31;;;-0.23;92.54
69173;BME280;56280;49.662;8.408;2023-01-26T02:16:00;101417.22;;;-0.35;93.08
69173;BME280;56280;49.662;8.408;2023-01-26T02:18:26;101419.34;;;-0.12;94.70
69173;BME280;56280;49.662;8.408;2023-01-26T02:20:57;101403.38;;;0.40;93.00
69173;BME280;56280;49.662;8.408;2023-01-26T02:23:30;101427.59;;;1.17;90.30
69173;BME280;56280;49.662;8.408;2023-01-26T02:26:02;101407.44;;;1.19;88.61
69173;BME280;56280;49.662;8.408;2023-01-26T02:28:27;101407.56;;;1.47;86.61
69173;BME280;56280;49.662;8.408;2023-01-26T02:30:54;101404.84;;;1.19;86.04
69173;BME280;56280;49.662;8.408;2023-01-26T02:33:22;101417.56;;;0.65;89.37
69173;BME280;56280;49.662;8.408;2023-01-26T02:35:48;101389.22;;;0.83;88.15
69173;BME280;56280;49.662;8.408;2023-01-26T02:38:13;101367.97;;;0.61;88.32
69173;BME280;56280;49.662;8.408;2023-01-26T02:43:13;101405.50;;;0.22;88.83
69173;BME280;56280;49.662;8.408;2023-01-26T02:45:40;101416.75;;;0.26;90.99
69173;BME280;56280;49.662;8.408;2023-01-26T02:48:05;101391.03;;;0.09;90.76
69173;BME280;56280;49.662;8.408;2023-01-26T02:50:32;101359.88;;;-0.01;90.53
69173;BME280;56280;49.662;8.408;2023-01-26T02:52:58;101380.88;;;-0.05;91.73
69173;BME280;56280;49.662;8.408;2023-01-26T02:55:24;101371.91;;;0.07;91.39
69173;BME280;56280;49.662;8.408;2023-01-26T02:57:52;101389.84;;;0.22;91.83
69173;BME280;56280;49.662;8.408;2023-01-26T03:00:35;101397.19;;;1.11;89.55
69173;BME280;56280;49.662;8.408;2023-01-26T03:03:14;101385.41;;;1.27;88.32
69173;BME280;56280;49.662;8.408;2023-01-26T03:05:40;101374.06;;;1.27;86.91
69173;BME280;56280;49.662;8.408;2023-01-26T03:08:06;101353.31;;;1.21;86.90
69173;BME280;56280;49.662;8.408;2023-01-26T03:10:32;101371.31;;;1.63;85.77
69173;BME280;56280;49.662;8.408;2023-01-26T03:12:57;101354.72;;;1.62;85.84
69173;BME280;56280;49.662;8.408;2023-01-26T03:15:24;101372.47;;;1.82;85.08
69173;BME280;56280;49.662;8.408;2023-01-26T03:18:13;101372.50;;;2.09;84.57
69173;BME280;56280;49.662;8.408;2023-01-26T03:20:59;101333.44;;;2.02;83.77
69173;BME280;56280;49.662;8.408;2023-01-26T03:23:42;101350.22;;;1.96;82.53
69173;BME280;56280;49.662;8.408;2023-01-26T03:26:26;101362.75;;;2.14;82.81
69173;BME280;56280;49.662;8.408;2023-01-26T03:29:10;101339.94;;;2.16;82.62
69173;BME280;56280;49.662;8.408;2023-01-26T03:31:36;101348.03;;;2.37;82.20
69173;BME280;56280;49.662;8.408;2023-01-26T03:34:01;101367.88;;;2.44;82.37
69173;BME280;56280;49.662;8.408;2023-01-26T03:36:27;101298.84;;;2.17;82.03
69173;BME280;56280;49.662;8.408;2023-01-26T03:38:52;101250.00;;;1.88;81.85
69173;BME280;56280;49.662;8.408;2023-01-26T03:41:17;101339.63;;;2.52;81.84
69173;BME280;56280;49.662;8.408;2023-01-26T03:44:01;101317.34;;;2.39;81.41
69173;BME280;56280;49.662;8.408;2023-01-26T03:46:45;101323.44;;;2.14;81.19
69173;BME280;56280;49.662;8.408;2023-01-26T03:49:29;101333.97;;;1.85;82.78
69173;BME280;56280;49.662;8.408;2023-01-26T03:52:13;101333.19;;;1.53;84.66
69173;BME280;56280;49.662;8.408;2023-01-26T03:54:56;101322.03;;;1.16;85.91
69173;BME280;56280;49.662;8.408;2023-01-26T03:57:41;101344.91;;;1.09;87.42
69173;BME280;56280;49.662;8.408;2023-01-26T04:00:06;101304.16;;;1.31;87.90
69173;BME280;56280;49.662;8.408;2023-01-26T04:02:32;101240.38;;;1.33;86.24
69173;BME280;56280;49.662;8.408;2023-01-26T04:05:16;101303.59;;;2.06;84.93
69173;BME280;56280;49.662;8.408;2023-01-26T04:08:04;101303.34;;;2.13;84.12
69173;BME280;56280;49.662;8.408;2023-01-26T04:10:53;101307.03;;;2.34;83.15
69173;BME280;56280;49.662;8.408;2023-01-26T04:13:22;101271.44;;;2.00;82.45
69173;BME280;56280;49.662;8.408;2023-01-26T04:16:07;101327.19;;;2.32;82.62
69173;BME280;56280;49.662;8.408;2023-01-26T04:18:52;101301.44;;;2.18;82.02
69173;BME280;56280;49.662;8.408;2023-01-26T04:21:36;101338.25;;;1.87;83.32
69173;BME280;56280;49.662;8.408;2023-01-26T04:24:03;101346.66;;;1.09;87.13
69173;BME280;56280;49.662;8.408;2023-01-26T04:26:34;101339.91;;;0.67;90.64
69173;BME280;56280;49.662;8.408;2023-01-26T04:29:01;101247.50;;;0.68;90.07
69173;BME280;56280;49.662;8.408;2023-01-26T04:31:27;101324.03;;;1.38;87.77
69173;BME280;56280;49.662;8.408;2023-01-26T04:33:52;101284.56;;;1.14;87.73
69173;BME280;56280;49.662;8.408;2023-01-26T04:36:18;101262.50;;;0.62;88.83
69173;BME280;56280;49.662;8.408;2023-01-26T04:38:43;101250.41;;;0.25;91.02
69173;BME280;56280;49.662;8.408;2023-01-26T04:41:08;101277.22;;;-0.03;92.66
69173;BME280;56280;49.662;8.408;2023-01-26T04:43:33;101274.91;;;-0.53;95.62
69173;BME280;56280;49.662;8.408;2023-01-26T04:46:01;101308.97;;;-0.59;97.67
69173;BME280;56280;49.662;8.408;2023-01-26T04:48:27;101265.53;;;-1.04;98.41
69173;BME280;56280;49.662;8.408;2023-01-26T04:50:58;101315.59;;;-0.85;99.96
69173;BME280;56280;49.662;8.408;2023-01-26T04:53:24;101324.06;;;-0.75;100.00
69173;BME280;56280;49.662;8.408;2023-01-26T04:55:49;101307.81;;;-0.88;100.00
69173;BME280;56280;49.662;8.408;2023-01-26T04:58:15;101317.28;;;-0.84;100.00
69173;BME280;56280;49.662;8.408;2023-01-26T05:00:40;101263.69;;;-0.99;100.00
69173;BME280;56280;49.662;8.408;2023-01-26T05:03:06;101309.44;;;-0.84;100.00
69173;BME280;56280;49.662;8.408;2023-01-26T05:05:35;101279.22;;;-0.93;100.00
69173;BME280;56280;49.662;8.408;2023-01-26T05:08:01;101294.81;;;-0.89;100.00
69173;BME280;56280;49.662;8.408;2023-01-26T05:10:27;101276.63;;;-0.94;100.00
69173;BME280;56280;49.662;8.408;2023-01-26T05:12:52;101158.72;;;-1.51;100.00
69173;BME280;56280;49.662;8.408;2023-01-26T05:15:17;101240.56;;;-1.16;100.00
69173;BME280;56280;49.662;8.408;2023-01-26T05:17:43;101287.75;;;-0.86;100.00
69173;BME280;56280;49.662;8.408;2023-01-26T05:20:08;101264.31;;;-0.87;100.00
69173;BME280;56280;49.662;8.408;2023-01-26T05:22:34;101293.88;;;-0.46;100.00
69173;BME280;56280;49.662;8.408;2023-01-26T05:24:59;101268.63;;;-0.85;100.00
69173;BME280;56280;49.662;8.408;2023-01-26T05:27:25;101257.84;;;-0.69;100.00
69173;BME280;56280;49.662;8.408;2023-01-26T05:29:50;101181.34;;;-1.11;100.00
69173;BME280;56280;49.662;8.408;2023-01-26T05:32:16;101290.16;;;-0.75;100.00
69173;BME280;56280;49.662;8.408;2023-01-26T05:34:42;101256.16;;;-1.13;100.00
69173;BME280;56280;49.662;8.408;2023-01-26T05:37:07;101292.97;;;-0.86;100.00
69173;BME280;56280;49.662;8.408;2023-01-26T05:39:32;101284.84;;;-0.70;100.00
69173;BME280;56280;49.662;8.408;2023-01-26T05:41:58;101293.47;;;-0.67;100.00
69173;BME280;56280;49.662;8.408;2023-01-26T05:44:23;101287.00;;;-0.50;100.00
69173;BME280;56280;49.662;8.408;2023-01-26T05:46:49;101288.59;;;-0.06;100.00
69173;BME280;56280;49.662;8.408;2023-01-26T05:49:15;101275.91;;;-0.60;97.88
69173;BME280;56280;49.662;8.408;2023-01-26T05:51:40;101282.53;;;-0.84;99.75
69173;BME280;56280;49.662;8.408;2023-01-26T05:54:06;101302.94;;;-1.06;100.00
69173;BME280;56280;49.662;8.408;2023-01-26T05:56:31;101238.63;;;-1.50;100.00
69173;BME280;56280;49.662;8.408;2023-01-26T05:58:56;101297.59;;;-0.99;100.00
69173;BME280;56280;49.662;8.408;2023-01-26T06:01:21;101281.72;;;-0.47;100.00
69173;BME280;56280;49.662;8.408;2023-01-26T06:03:47;101313.34;;;-0.61;99.68
69173;BME280;56280;49.662;8.408;2023-01-26T06:06:12;101273.88;;;-0.86;99.57
69173;BME280;56280;49.662;8.408;2023-01-26T06:08:43;101312.97;;;-0.44;99.32
69173;BME280;56280;49.662;8.408;2023-01-26T06:11:09;101302.84;;;-0.19;98.29
69173;BME280;56280;49.662;8.408;2023-01-26T06:13:34;101306.22;;;-0.14;96.25
69173;BME280;56280;49.662;8.408;2023-01-26T06:16:00;101302.66;;;-0.50;96.26
69173;BME280;56280;49.662;8.408;2023-01-26T06:18:25;101333.50;;;0.10;94.95
69173;BME280;56280;49.662;8.408;2023-01-26T06:20:51;101309.81;;;-0.20;93.46
69173;BME280;56280;49.662;8.408;2023-01-26T06:23:16;101331.13;;;-0.01;94.29
69173;BME280;56280;49.662;8.408;2023-01-26T06:25:41;101340.81;;;-0.04;93.38
69173;BME280;56280;49.662;8.408;2023-01-26T06:28:07;101312.44;;;-0.21;92.70
69173;BME280;56280;49.662;8.408;2023-01-26T06:30:32;101322.16;;;-0.26;92.31
69173;BME280;56280;49.662;8.408;2023-01-26T06:32:58;101302.50;;;-0.43;92.86
69173;BME280;56280;49.662;8.408;2023-01-26T06:35:24;101352.78;;;-0.33;94.67
69173;BME280;56280;49.662;8.408;2023-01-26T06:37:50;101337.81;;;-0.26;94.01
69173;BME280;56280;49.662;8.408;2023-01-26T06:40:16;101349.75;;;-0.14;93.83
69173;BME280;56280;49.662;8.408;2023-01-26T06:42:49;101330.94;;;-0.29;94.44
69173;BME280;56280;49.662;8.408;2023-01-26T06:45:15;101345.53;;;-0.20;93.36
69173;BME280;56280;49.662;8.408;2023-01-26T06:47:47;101347.31;;;-0.22;93.07
69173;BME280;56280;49.662;8.408;2023-01-26T06:50:18;101334.56;;;-0.36;92.71
69173;BME280;56280;49.662;8.408;2023-01-26T06:52:46;101341.53;;;-0.37;93.38
69173;BME280;56280;49.662;8.408;2023-01-26T06:55:18;101301.41;;;-0.73;93.20
69173;BME280;56280;49.662;8.408;2023-01-26T06:57:45;101329.47;;;-0.84;94.62
69173;BME280;56280;49.662;8.408;2023-01-26T07:00:11;101352.81;;;-0.77;93.36
69173;BME280;56280;49.662;8.408;2023-01-26T07:02:37;101354.44;;;-0.73;92.99
69173;BME280;56280;49.662;8.408;2023-01-26T07:05:03;101348.72;;;-0.88;93.43
69173;BME280;56280;49.662;8.408;2023-01-26T07:07:28;101326.31;;;-1.00;93.01
69173;BME280;56280;49.662;8.408;2023-01-26T07:09:53;101348.41;;;-0.75;93.17
69173;BME280;56280;49.662;8.408;2023-01-26T07:12:19;101354.66;;;-0.82;92.04
69173;BME280;56280;49.662;8.408;2023-01-26T07:14:44;101335.13;;;-0.62;91.29
69173;BME280;56280;49.662;8.408;2023-01-26T07:17:09;101356.00;;;-0.62;90.06
69173;BME280;56280;49.662;8.408;2023-01-26T07:19:35;101318.75;;;-1.13;90.85
69173;BME280;56280;49.662;8.408;2023-01-26T07:22:01;101355.63;;;-0.87;91.66
69173;BME280;56280;49.662;8.408;2023-01-26T07:24:26;101341.03;;;-0.96;91.64
69173;BME280;56280;49.662;8.408;2023-01-26T07:26:52;101268.72;;;-1.33;90.85
69173;BME280;56280;49.662;8.408;2023-01-26T07:29:17;101339.03;;;-0.41;89.26
69173;BME280;56280;49.662;8.408;2023-01-26T07:31:42;101231.97;;;-1.21;89.03
69173;BME280;56280;49.662;8.408;2023-01-26T07:34:09;101355.38;;;-0.75;89.93
69173;BME280;56280;49.662;8.408;2023-01-26T07:36:34;101312.59;;;-1.10;89.96
69173;BME280;56280;49.662;8.408;2023-01-26T07:39:00;101324.00;;;-0.70;89.57
69173;BME280;56280;49.662;8.408;2023-01-26T07:41:25;101362.03;;;-0.60;89.51
69173;BME280;56280;49.662;8.408;2023-01-26T07:43:50;101352.13;;;-0.44;89.58
69173;BME280;56280;49.662;8.408;2023-01-26T07:46:16;101347.34;;;-0.64;88.81
69173;BME280;56280;49.662;8.408;2023-01-26T07:48:41;101370.06;;;-0.69;89.59
69173;BME280;56280;49.662;8.408;2023-01-26T07:51:06;101327.47;;;-1.15;89.80
69173;BME280;56280;49.662;8.408;2023-01-26T07:53:34;101365.31;;;-0.94;90.03
69173;BME280;56280;49.662;8.408;2023-01-26T07:56:08;101366.97;;;-0.88;90.80
69173;BME280;56280;49.662;8.408;2023-01-26T07:58:34;101298.84;;;-1.18;91.35
69173;BME280;56280;49.662;8.408;2023-01-26T08:01:07;101317.63;;;-1.01;91.63
69173;BME280;56280;49.662;8.408;2023-01-26T08:03:32;101338.44;;;-0.98;92.62
69173;BME280;56280;49.662;8.408;2023-01-26T08:05:58;101337.09;;;-1.17;92.38
69173;BME280;56280;49.662;8.408;2023-01-26T08:08:23;101343.78;;;-1.04;91.90
69173;BME280;56280;49.662;8.408;2023-01-26T08:10:48;101353.94;;;-0.88;92.11
69173;BME280;56280;49.662;8.408;2023-01-26T08:13:14;101361.50;;;-0.76;91.24
69173;BME280;56280;49.662;8.408;2023-01-26T08:15:39;101338.38;;;-0.51;91.36
69173;BME280;56280;49.662;8.408;2023-01-26T08:18:04;101296.56;;;-0.90;90.00
69173;BME280;56280;49.662;8.408;2023-01-26T08:20:30;101315.81;;;-0.55;91.16
69173;BME280;56280;49.662;8.408;2023-01-26T08:22:55;101332.88;;;-0.39;90.35
69173;BME280;56280;49.662;8.408;2023-01-26T08:25:21;101253.66;;;-0.77;89.73
69173;BME280;56280;49.662;8.408;2023-01-26T08:27:46;101349.63;;;-0.10;89.05
69173;BME280;56280;49.662;8.408;2023-01-26T08:30:12;101329.28;;;0.05;88.33
69173;BME280;56280;49.662;8.408;2023-01-26T08:32:37;101372.00;;;0.40;86.74
69173;BME280;56280;49.662;8.408;2023-01-26T08:35:03;101345.88;;;0.04;85.17
69173;BME280;56280;49.662;8.408;2023-01-26T08:37:28;101381.91;;;0.25;86.75
69173;BME280;56280;49.662;8.408;2023-01-26T08:39:53;101364.09;;;0.76;85.23
69173;BME280;56280;49.662;8.408;2023-01-26T08:42:19;101358.19;;;0.34;83.38
69173;BME280;56280;49.662;8.408;2023-01-26T08:44:44;101392.03;;;0.02;84.70
69173;BME280;56280;49.662;8.408;2023-01-26T08:47:09;101374.44;;;-0.29;87.07
69173;BME280;56280;49.662;8.408;2023-01-26T08:49:34;101372.84;;;0.04;86.09
69173;BME280;56280;49.662;8.408;2023-01-26T08:52:00;101387.16;;;-0.12;86.08
69173;BME280;56280;49.662;8.408;2023-01-26T08:54:25;101345.72;;;-0.29;85.55
69173;BME280;56280;49.662;8.408;2023-01-26T08:56:50;101354.22;;;0.18;85.34
69173;BME280;56280;49.662;8.408;2023-01-26T08:59:23;101345.16;;;-0.03;83.56
69173;BME280;56280;49.662;8.408;2023-01-26T09:01:48;101358.00;;;-0.33;84.29
69173;BME280;56280;49.662;8.408;2023-01-26T09:04:14;101382.16;;;-0.23;85.08
69173;BME280;56280;49.662;8.408;2023-01-26T09:06:39;101329.31;;;-0.77;84.73
69173;BME280;56280;49.662;8.408;2023-01-26T09:09:04;101363.00;;;-0.64;86.43
69173;BME280;56280;49.662;8.408;2023-01-26T09:11:30;101352.59;;;-0.66;85.25
69173;BME280;56280;49.662;8.408;2023-01-26T09:13:55;101344.16;;;-0.79;85.27
69173;BME280;56280;49.662;8.408;2023-01-26T09:16:22;101402.38;;;-0.33;85.51
69173;BME280;56280;49.662;8.408;2023-01-26T09:18:49;101351.81;;;-0.71;85.87
69173;BME280;56280;49.662;8.408;2023-01-26T09:21:15;101387.16;;;-0.54;88.47
69173;BME280;56280;49.662;8.408;2023-01-26T09:23:40;101369.13;;;-0.65;88.32
69173;BME280;56280;49.662;8.408;2023-01-26T09:26:05;101387.66;;;-0.81;89.49
69173;BME280;56280;49.662;8.408;2023-01-26T09:28:31;101399.06;;;-0.85;90.33
69173;BME280;56280;49.662;8.408;2023-01-26T09:30:56;101405.03;;;-0.78;90.59
69173;BME280;56280;49.662;8.408;2023-01-26T09:33:21;101393.94;;;-0.89;91.26
69173;BME280;56280;49.662;8.408;2023-01-26T09:35:48;101345.72;;;-1.15;91.61
69173;BME280;56280;49.662;8.408;2023-01-26T09:38:13;101387.91;;;-0.93;91.75
69173;BME280;56280;49.662;8.408;2023-01-26T09:43:42;101395.56;;;-0.84;92.60
69173;BME280;56280;49.662;8.408;2023-01-26T09:49:04;101368.84;;;-0.97;91.19
69173;BME280;56280;49.662;8.408;2023-01-26T09:51:35;101401.38;;;-0.71;91.64
69173;BME280;56280;49.662;8.408;2023-01-26T09:57:00;101399.06;;;-0.85;92.43
69173;BME280;56280;49.662;8.408;2023-01-26T09:59:43;101395.44;;;-0.78;92.03
69173;BME280;56280;49.662;8.408;2023-01-26T10:02:49;101387.44;;;-0.68;91.73
69173;BME280;56280;49.662;8.408;2023-01-26T10:05:24;101293.16;;;-1.40;89.81
69173;BME280;56280;49.662;8.408;2023-01-26T10:07:52;101383.03;;;-0.66;90.57
69173;BME280;56280;49.662;8.408;2023-01-26T10:10:26;101387.56;;;-0.75;90.39
69173;BME280;56280;49.662;8.408;2023-01-26T10:12:52;101372.78;;;-0.74;90.67
69173;BME280;56280;49.662;8.408;2023-01-26T10:15:38;101344.97;;;-0.77;91.50
69173;BME280;56280;49.662;8.408;2023-01-26T10:18:12;101372.56;;;-0.65;90.38
69173;BME280;56280;49.662;8.408;2023-01-26T10:20:44;101373.81;;;-0.83;90.10
69173;BME280;56280;49.662;8.408;2023-01-26T10:23:26;101380.63;;;-0.76;89.65
69173;BME280;56280;49.662;8.408;2023-01-26T10:25:52;101370.94;;;-0.69;89.54
69173;BME280;56280;49.662;8.408;2023-01-26T10:28:24;101376.38;;;-0.81;89.60
69173;BME280;56280;49.662;8.408;2023-01-26T10:30:50;101308.38;;;-1.16;89.92
69173;BME280;56280;49.662;8.408;2023-01-26T10:33:23;101378.31;;;-0.47;87.89
69173;BME280;56280;49.662;8.408;2023-01-26T10:35:50;101366.09;;;-0.89;89.07
69173;BME280;56280;49.662;8.408;2023-01-26T10:41:06;101382.16;;;-0.65;88.76
69173;BME280;56280;49.662;8.408;2023-01-26T10:43:39;101370.06;;;-0.69;88.97
69173;BME280;56280;49.662;8.408;2023-01-26T10:46:05;101351.22;;;-0.85;88.87
69173;BME280;56280;49.662;8.408;2023-01-26T10:48:30;101365.03;;;-0.79;90.00
69173;BME280;56280;49.662;8.408;2023-01-26T10:51:14;101368.59;;;-0.83;89.12
69173;BME280;56280;49.662;8.408;2023-01-26T10:53:40;101348.75;;;-0.92;89.17
69173;BME280;56280;49.662;8.408;2023-01-26T10:56:13;101340.16;;;-0.97;89.53
69173;BME280;56280;49.662;8.408;2023-01-26T10:58:44;101333.28;;;-1.01;89.05
69173;BME280;56280;49.662;8.408;2023-01-26T11:01:12;101361.53;;;-0.79;89.02
69173;BME280;56280;49.662;8.408;2023-01-26T11:03:40;101366.94;;;-0.87;90.06
69173;BME280;56280;49.662;8.408;2023-01-26T11:06:07;101360.88;;;-0.89;89.30
69173;BME280;56280;49.662;8.408;2023-01-26T11:08:37;101334.09;;;-0.99;90.43
69173;BME280;56280;49.662;8.408;2023-01-26T11:11:04;101339.25;;;-0.94;90.02
69173;BME280;56280;49.662;8.408;2023-01-26T11:13:32;101335.03;;;-1.01;88.64
69173;BME280;56280;49.662;8.408;2023-01-26T11:16:16;101318.53;;;-1.03;90.89
69173;BME280;56280;49.662;8.408;2023-01-26T11:19:06;101352.88;;;-0.80;92.01
69173;BME280;56280;49.662;8.408;2023-01-26T11:21:40;101339.63;;;-0.69;90.01
69173;BME280;56280;49.662;8.408;2023-01-26T11:24:24;101305.19;;;-0.86;89.43
69173;BME280;56280;49.662;8.408;2023-01-26T11:27:18;101327.19;;;-0.58;89.08
69173;BME280;56280;49.662;8.408;2023-01-26T11:40:25;101299.50;;;-1.07;89.58
69173;BME280;56280;49.662;8.408;2023-01-26T11:54:17;101306.84;;;-0.84;88.79
69173;BME280;56280;49.662;8.408;2023-01-26T11:59:41;101228.81;;;-1.37;87.25
69173;BME280;56280;49.662;8.408;2023-01-26T12:04:47;101244.44;;;-1.35;86.63
69173;BME280;56280;49.662;8.408;2023-01-26T12:07:27;101245.19;;;-1.29;86.94
69173;BME280;56280;49.662;8.408;2023-01-26T12:09:54;101281.13;;;-1.01;88.19
69173;BME280;56280;49.662;8.408;2023-01-26T12:12:45;101264.09;;;-1.19;89.05
69173;BME280;56280;49.662;8.408;2023-01-26T12:15:33;101282.13;;;-1.08;87.25
69173;BME280;56280;49.662;8.408;2023-01-26T12:18:12;101299.53;;;-1.08;87.91
69173;BME280;56280;49.662;8.408;2023-01-26T12:20:44;101202.25;;;-1.56;86.42
69173;BME280;56280;49.662;8.408;2023-01-26T12:25:59;101290.66;;;-0.98;87.59
69173;BME280;56280;49.662;8.408;2023-01-26T12:28:31;101292.44;;;-1.02;86.05
69173;BME280;56280;49.662;8.408;2023-01-26T12:33:41;101275.69;;;-0.90;85.76
69173;BME280;56280;49.662;8.408;2023-01-26T12:38:59;101274.66;;;-0.83;84.66
69173;BME280;56280;49.662;8.408;2023-01-26T12:44:35;101253.72;;;-0.41;82.44
69173;BME280;56280;49.662;8.408;2023-01-26T12:52:17;101229.63;;;-0.91;84.46
69173;BME280;56280;49.662;8.408;2023-01-26T12:55:15;101239.13;;;-0.88;84.35
69173;BME280;56280;49.662;8.408;2023-01-26T12:58:04;101191.44;;;-0.95;84.83
69173;BME280;56280;49.662;8.408;2023-01-26T13:00:36;101233.38;;;-0.64;85.07
69173;BME280;56280;49.662;8.408;2023-01-26T13:03:23;101240.59;;;-0.75;85.03
69173;BME280;56280;49.662;8.408;2023-01-26T13:05:57;101249.13;;;-0.68;85.44
69173;BME280;56280;49.662;8.408;2023-01-26T13:10:55;101237.91;;;-0.72;85.15
69173;BME280;56280;49.662;8.408;2023-01-26T13:13:34;101260.75;;;-0.82;85.03
69173;BME280;56280;49.662;8.408;2023-01-26T13:18:54;101207.97;;;-0.95;84.18
69173;BME280;56280;49.662;8.408;2023-01-26T13:26:52;101218.28;;;-0.88;83.09
69173;BME280;56280;49.662;8.408;2023-01-26T13:31:44;101203.66;;;-0.97;83.57
69173;BME280;56280;49.662;8.408;2023-01-26T13:34:09;101198.69;;;-0.69;83.98
69173;BME280;56280;49.662;8.408;2023-01-26T13:36:39;101256.69;;;-0.56;82.92
69173;BME280;56280;49.662;8.408;2023-01-26T13:39:39;101225.75;;;-0.73;83.83
69173;BME280;56280;49.662;8.408;2023-01-26T13:42:22;101216.66;;;-0.96;83.15
69173;BME280;56280;49.662;8.408;2023-01-26T13:44:54;101252.28;;;-0.93;82.99
69173;BME280;56280;49.662;8.408;2023-01-26T13:47:27;101234.59;;;-1.22;83.54
69173;BME280;56280;49.662;8.408;2023-01-26T13:49:56;101251.34;;;-0.90;83.24
69173;BME280;56280;49.662;8.408;2023-01-26T13:52:23;101219.44;;;-1.03;82.20
69173;BME280;56280;49.662;8.408;2023-01-26T13:54:51;101253.78;;;-0.83;83.52
69173;BME280;56280;49.662;8.408;2023-01-26T13:57:25;101246.63;;;-0.73;83.11
69173;BME280;56280;49.662;8.408;2023-01-26T13:59:57;101254.22;;;-0.62;83.10
69173;BME280;56280;49.662;8.408;2023-01-26T14:02:31;101225.63;;;-0.68;81.56
69173;BME280;56280;49.662;8.408;2023-01-26T14:04:57;101231.28;;;-0.87;82.36
69173;BME280;56280;49.662;8.408;2023-01-26T14:07:31;101258.69;;;-0.67;81.97
69173;BME280;56280;49.662;8.408;2023-01-26T14:10:00;101233.59;;;-0.75;82.40
69173;BME280;56280;49.662;8.408;2023-01-26T14:12:30;101249.53;;;-0.48;81.69
69173;BME280;56280;49.662;8.408;2023-01-26T14:15:02;101244.19;;;-0.42;80.79
69173;BME280;56280;49.662;8.408;2023-01-26T14:17:47;101200.69;;;-0.80;80.80